createdAt,value
2017-07-28T00:00:35.043Z,20.47
2017-07-28T00:01:15.521Z,20.48
2017-07-28T00:01:56.019Z,20.43
2017-07-28T00:02:36.550Z,20.36
2017-07-28T00:03:17.033Z,20.5
2017-07-28T00:03:57.574Z,20.43
2017-07-28T00:04:38.044Z,20.41
2017-07-28T00:05:18.536Z,20.39
2017-07-28T00:05:59.010Z,20.54
2017-07-28T00:06:39.608Z,20.43
2017-07-28T00:07:20.084Z,20.42
2017-07-28T00:08:00.605Z,20.5
2017-07-28T00:08:41.093Z,20.52
2017-07-28T00:09:21.607Z,20.59
2017-07-28T00:10:02.114Z,20.57
2017-07-28T00:10:42.557Z,20.59
2017-07-28T00:11:23.059Z,20.58
2017-07-28T00:12:03.592Z,20.61
2017-07-28T00:12:44.032Z,20.64
2017-07-28T00:13:24.522Z,20.58
2017-07-28T00:14:05.016Z,20.57
2017-07-28T00:14:45.499Z,20.61
2017-07-28T00:15:25.996Z,20.62
2017-07-28T00:16:06.504Z,20.55
2017-07-28T00:16:46.991Z,20.55
2017-07-28T00:17:27.480Z,20.58
2017-07-28T00:18:07.993Z,20.59
2017-07-28T00:18:48.498Z,20.55
2017-07-28T00:19:29.015Z,20.61
2017-07-28T00:20:09.506Z,20.52
2017-07-28T00:20:50.009Z,20.5
2017-07-28T00:21:30.485Z,20.48
2017-07-28T00:22:11.037Z,20.58
2017-07-28T00:22:51.527Z,20.64
2017-07-28T00:23:32.030Z,20.61
2017-07-28T00:24:12.610Z,20.55
2017-07-28T00:24:53.112Z,20.61
2017-07-28T00:25:33.603Z,20.58
2017-07-28T00:26:14.111Z,20.59
2017-07-28T00:26:54.756Z,20.67
2017-07-28T00:27:35.272Z,20.57
2017-07-28T00:28:15.790Z,20.64
2017-07-28T00:28:56.240Z,20.61
2017-07-28T00:29:36.838Z,20.72
2017-07-28T00:30:17.301Z,20.61
2017-07-28T00:30:57.755Z,20.64
2017-07-28T00:31:38.281Z,20.57
2017-07-28T00:32:18.737Z,20.59
2017-07-28T00:32:59.225Z,20.57
2017-07-28T00:33:39.733Z,20.58
2017-07-28T00:34:20.277Z,20.51
2017-07-28T00:35:00.790Z,20.58
2017-07-28T00:35:41.236Z,20.64
2017-07-28T00:36:21.739Z,20.55
2017-07-28T00:37:02.248Z,20.5
2017-07-28T00:37:42.742Z,20.5
2017-07-28T00:38:23.308Z,20.51
2017-07-28T00:39:03.776Z,20.39
2017-07-28T00:39:44.289Z,20.52
2017-07-28T00:40:24.758Z,20.51
2017-07-28T00:41:05.274Z,20.51
2017-07-28T00:41:45.737Z,20.52
2017-07-28T00:42:26.275Z,20.42
2017-07-28T00:43:06.784Z,20.41
2017-07-28T00:43:47.288Z,20.35
2017-07-28T00:44:27.765Z,20.39
2017-07-28T00:45:08.281Z,20.43
2017-07-28T00:45:48.809Z,20.48
2017-07-28T00:46:29.281Z,20.43
2017-07-28T00:47:09.813Z,20.42
2017-07-28T00:47:50.231Z,20.39
2017-07-28T00:48:30.729Z,20.42
2017-07-28T00:49:11.222Z,20.42
2017-07-28T00:49:51.774Z,20.42
2017-07-28T00:50:32.281Z,20.43
2017-07-28T00:51:12.762Z,20.41
2017-07-28T00:51:53.261Z,20.58
2017-07-28T00:52:33.760Z,20.41
2017-07-28T00:53:14.222Z,20.43
2017-07-28T00:53:54.724Z,20.41
2017-07-28T00:54:35.199Z,20.51
2017-07-28T00:55:15.727Z,20.42
2017-07-28T00:55:56.380Z,20.42
2017-07-28T00:56:36.881Z,20.43
2017-07-28T00:57:17.391Z,20.31
2017-07-28T00:57:57.895Z,20.32
2017-07-28T00:58:38.401Z,20.33
2017-07-28T00:59:18.935Z,20.26
2017-07-28T00:59:59.444Z,20.35
2017-07-28T01:00:39.879Z,20.32
2017-07-28T01:01:20.406Z,20.39
2017-07-28T01:02:00.873Z,20.36
2017-07-28T01:02:41.379Z,20.38
2017-07-28T01:03:21.882Z,20.26
2017-07-28T01:04:02.376Z,20.2
2017-07-28T01:04:42.863Z,20.28
2017-07-28T01:05:23.400Z,20.28
2017-07-28T01:06:03.893Z,20.28
2017-07-28T01:06:44.351Z,20.28
2017-07-28T01:07:24.837Z,20.28
2017-07-28T01:08:05.357Z,20.26
2017-07-28T01:08:45.858Z,20.21
2017-07-28T01:09:26.381Z,20.13
2017-07-28T01:10:06.836Z,20.13
2017-07-28T01:10:47.327Z,20.05
2017-07-28T01:11:27.839Z,20.05
2017-07-28T01:12:08.324Z,20.05
2017-07-28T01:12:48.810Z,20.02
2017-07-28T01:13:29.303Z,20.16
2017-07-28T01:14:09.795Z,20.1
2017-07-28T01:14:50.295Z,20.2
2017-07-28T01:15:30.804Z,20.18
2017-07-28T01:16:11.274Z,20.16
2017-07-28T01:16:51.788Z,19.95
2017-07-28T01:17:32.298Z,20.02
2017-07-28T01:18:12.776Z,19.99
2017-07-28T01:18:53.312Z,19.98
2017-07-28T01:19:33.857Z,19.96
2017-07-28T01:20:14.334Z,19.95
2017-07-28T01:20:54.849Z,20.03
2017-07-28T01:21:35.314Z,20.06
2017-07-28T01:22:16.603Z,20.06
2017-07-28T01:22:57.091Z,20.16
2017-07-28T01:23:37.605Z,20.18
2017-07-28T01:24:18.152Z,20.17
2017-07-28T01:24:58.617Z,20.18
2017-07-28T01:25:39.156Z,20.17
2017-07-28T01:26:19.638Z,20.13
2017-07-28T01:27:00.105Z,20.13
2017-07-28T01:27:40.647Z,19.94
2017-07-28T01:28:21.174Z,20.06
2017-07-28T01:29:01.659Z,20.05
2017-07-28T01:29:42.157Z,20.1
2017-07-28T01:30:22.603Z,20.1
2017-07-28T01:31:03.091Z,20.16
2017-07-28T01:31:43.610Z,20.17
2017-07-28T01:32:24.112Z,20.16
2017-07-28T01:33:04.623Z,20.29
2017-07-28T01:33:45.111Z,20.13
2017-07-28T01:34:25.616Z,20.03
2017-07-28T01:35:06.104Z,20.11
2017-07-28T01:35:46.600Z,20.14
2017-07-28T01:36:27.086Z,20.17
2017-07-28T01:37:07.603Z,20.18
2017-07-28T01:37:48.088Z,20.13
2017-07-28T01:38:28.580Z,20.17
2017-07-28T01:39:09.088Z,20.23
2017-07-28T01:39:49.584Z,20.14
2017-07-28T01:40:30.114Z,20.24
2017-07-28T01:41:10.561Z,20.23
2017-07-28T01:41:51.083Z,20.18
2017-07-28T01:42:31.646Z,20.16
2017-07-28T01:43:12.154Z,20.23
2017-07-28T01:43:52.626Z,20.21
2017-07-28T01:44:33.114Z,20.13
2017-07-28T01:45:13.593Z,20.2
2017-07-28T01:45:54.113Z,20.16
2017-07-28T01:46:34.652Z,20.23
2017-07-28T01:47:15.163Z,20.29
2017-07-28T01:47:55.677Z,20.24
2017-07-28T01:48:36.182Z,20.17
2017-07-28T01:49:16.669Z,20.2
2017-07-28T01:49:57.159Z,20.17
2017-07-28T01:50:37.665Z,20.13
2017-07-28T01:51:18.196Z,20.16
2017-07-28T01:51:58.706Z,20.16
2017-07-28T01:52:39.190Z,20.24
2017-07-28T01:53:19.745Z,20.16
2017-07-28T01:54:00.244Z,20.16
2017-07-28T01:54:40.734Z,20.16
2017-07-28T01:55:21.228Z,20.28
2017-07-28T01:56:01.731Z,20.17
2017-07-28T01:56:42.188Z,20.2
2017-07-28T01:57:22.705Z,20.11
2017-07-28T01:58:03.238Z,20.17
2017-07-28T01:58:43.693Z,20.02
2017-07-28T01:59:24.251Z,20.17
2017-07-28T02:00:04.775Z,20.2
2017-07-28T02:00:45.260Z,20.13
2017-07-28T02:02:33.278Z,20.1
2017-07-28T02:03:13.826Z,20.02
2017-07-28T02:03:54.342Z,20.14
2017-07-28T02:04:34.890Z,20.13
2017-07-28T02:05:15.382Z,20.16
2017-07-28T02:05:55.872Z,20.16
2017-07-28T02:06:36.412Z,20.02
2017-07-28T02:07:16.889Z,20.13
2017-07-28T02:07:57.380Z,20.14
2017-07-28T02:08:37.917Z,20.16
2017-07-28T02:09:18.400Z,20.16
2017-07-28T02:09:58.893Z,20.11
2017-07-28T02:10:39.378Z,20.14
2017-07-28T02:11:19.889Z,20.16
2017-07-28T02:12:00.380Z,20.18
2017-07-28T02:12:40.893Z,20.16
2017-07-28T02:13:21.382Z,20.18
2017-07-28T02:14:01.898Z,20.18
2017-07-28T02:14:42.567Z,20.1
2017-07-28T02:15:22.869Z,20.08
2017-07-28T02:16:03.413Z,20.05
2017-07-28T02:16:43.856Z,20.13
2017-07-28T02:17:24.386Z,20.17
2017-07-28T02:18:04.829Z,20.06
2017-07-28T02:18:45.343Z,20.18
2017-07-28T02:19:25.833Z,20.17
2017-07-28T02:20:06.296Z,20.29
2017-07-28T02:20:46.899Z,20.18
2017-07-28T02:21:27.331Z,20.28
2017-07-28T02:22:07.840Z,20.29
2017-07-28T02:22:48.331Z,20.35
2017-07-28T02:23:28.827Z,20.33
2017-07-28T02:24:09.362Z,20.28
2017-07-28T02:24:49.876Z,20.29
2017-07-28T02:25:30.390Z,20.35
2017-07-28T02:26:10.884Z,20.29
2017-07-28T02:26:51.355Z,20.31
2017-07-28T02:27:31.928Z,20.31
2017-07-28T02:28:12.388Z,20.23
2017-07-28T02:28:52.859Z,20.31
2017-07-28T02:29:33.299Z,20.2
2017-07-28T02:30:13.810Z,20.18
2017-07-28T02:30:54.313Z,20.26
2017-07-28T02:31:34.822Z,20.24
2017-07-28T02:32:15.335Z,20.23
2017-07-28T02:32:55.826Z,20.28
2017-07-28T02:33:36.303Z,20.21
2017-07-28T02:34:16.836Z,20.28
2017-07-28T02:34:57.333Z,20.31
2017-07-28T02:35:37.845Z,20.31
2017-07-28T02:36:18.422Z,20.38
2017-07-28T02:36:58.956Z,20.32
2017-07-28T02:37:39.441Z,20.41
2017-07-28T02:38:19.929Z,20.29
2017-07-28T02:39:00.404Z,20.31
2017-07-28T02:39:40.930Z,20.23
2017-07-28T02:40:21.435Z,20.29
2017-07-28T02:41:01.952Z,20.17
2017-07-28T02:41:42.447Z,20.24
2017-07-28T02:42:22.882Z,20.18
2017-07-28T02:43:03.389Z,20.05
2017-07-28T02:43:43.964Z,20.2
2017-07-28T02:44:24.443Z,20.14
2017-07-28T02:45:04.920Z,20.17
2017-07-28T02:45:45.403Z,20.21
2017-07-28T02:46:25.912Z,20.16
2017-07-28T02:47:06.418Z,20.28
2017-07-28T02:47:46.911Z,20.24
2017-07-28T02:48:27.428Z,20.2
2017-07-28T02:49:07.934Z,20.17
2017-07-28T02:49:48.408Z,20.29
2017-07-28T02:50:28.905Z,20.31
2017-07-28T02:51:09.442Z,20.31
2017-07-28T02:51:49.907Z,20.23
2017-07-28T02:52:30.374Z,20.35
2017-07-28T02:53:10.913Z,20.39
2017-07-28T02:53:51.370Z,20.36
2017-07-28T02:54:31.854Z,20.24
2017-07-28T02:55:12.356Z,20.26
2017-07-28T02:55:52.845Z,20.23
2017-07-28T02:56:33.331Z,20.03
2017-07-28T02:57:13.832Z,20.13
2017-07-28T02:57:54.334Z,19.96
2017-07-28T02:58:34.858Z,19.86
2017-07-28T02:59:15.344Z,19.84
2017-07-28T02:59:55.847Z,19.73
2017-07-28T03:00:36.356Z,19.74
2017-07-28T03:01:16.843Z,19.8
2017-07-28T03:01:57.353Z,19.76
2017-07-28T03:02:37.879Z,19.81
2017-07-28T03:03:18.592Z,19.81
2017-07-28T03:03:58.965Z,19.86
2017-07-28T03:04:39.413Z,19.84
2017-07-28T03:05:19.909Z,19.84
2017-07-28T03:06:00.407Z,19.91
2017-07-28T03:06:40.892Z,19.88
2017-07-28T03:07:21.411Z,19.78
2017-07-28T03:08:01.889Z,19.74
2017-07-28T03:08:42.393Z,19.76
2017-07-28T03:09:23.007Z,19.61
2017-07-28T03:10:03.476Z,19.65
2017-07-28T03:10:43.997Z,19.69
2017-07-28T03:11:24.507Z,19.68
2017-07-28T03:12:04.992Z,19.8
2017-07-28T03:12:45.538Z,19.92
2017-07-28T03:13:26.005Z,19.91
2017-07-28T03:14:06.535Z,19.88
2017-07-28T03:14:46.972Z,19.98
2017-07-28T03:15:27.468Z,19.92
2017-07-28T03:16:07.972Z,19.94
2017-07-28T03:16:48.504Z,20.03
2017-07-28T03:17:28.984Z,20.01
2017-07-28T03:19:28.136Z,19.95
2017-07-28T03:20:08.591Z,19.96
2017-07-28T03:20:49.087Z,19.96
2017-07-28T03:21:29.579Z,19.94
2017-07-28T03:22:10.125Z,19.98
2017-07-28T03:22:50.690Z,19.92
2017-07-28T03:23:31.173Z,19.94
2017-07-28T03:24:11.653Z,19.95
2017-07-28T03:24:52.148Z,19.99
2017-07-28T03:25:32.636Z,19.92
2017-07-28T03:26:13.149Z,19.98
2017-07-28T03:26:53.612Z,19.96
2017-07-28T03:27:34.161Z,19.87
2017-07-28T03:28:14.646Z,19.95
2017-07-28T03:28:55.155Z,19.98
2017-07-28T03:29:35.596Z,20.08
2017-07-28T03:30:16.101Z,20.1
2017-07-28T03:30:56.581Z,20.06
2017-07-28T03:31:37.080Z,20.02
2017-07-28T03:32:17.556Z,20.17
2017-07-28T03:32:58.090Z,20.18
2017-07-28T03:33:38.563Z,20.2
2017-07-28T03:34:19.062Z,20.16
2017-07-28T03:34:59.593Z,20.2
2017-07-28T03:35:40.052Z,20.05
2017-07-28T03:36:20.734Z,20.13
2017-07-28T03:37:01.236Z,20.03
2017-07-28T03:37:41.726Z,20.14
2017-07-28T03:38:22.219Z,20.14
2017-07-28T03:39:02.638Z,20.16
2017-07-28T03:39:43.157Z,20.17
2017-07-28T03:40:23.626Z,20.21
2017-07-28T03:41:04.155Z,20.21
2017-07-28T03:41:44.663Z,20.31
2017-07-28T03:42:25.153Z,20.33
2017-07-28T03:43:05.636Z,20.35
2017-07-28T03:43:46.113Z,20.33
2017-07-28T03:44:26.614Z,20.35
2017-07-28T03:45:07.068Z,20.33
2017-07-28T03:45:47.523Z,20.35
2017-07-28T03:46:28.018Z,20.32
2017-07-28T03:47:08.536Z,20.36
2017-07-28T03:47:48.991Z,20.36
2017-07-28T03:48:29.436Z,20.29
2017-07-28T03:49:09.937Z,20.28
2017-07-28T03:49:50.444Z,20.29
2017-07-28T03:50:30.944Z,20.29
2017-07-28T03:51:11.439Z,20.24
2017-07-28T03:51:51.955Z,20.29
2017-07-28T03:52:32.424Z,20.29
2017-07-28T03:53:12.876Z,20.29
2017-07-28T03:53:53.382Z,20.29
2017-07-28T03:54:33.870Z,20.29
2017-07-28T03:55:14.327Z,20.28
2017-07-28T03:55:54.837Z,20.24
2017-07-28T03:56:35.383Z,20.31
2017-07-28T03:57:15.852Z,20.32
2017-07-28T03:57:56.388Z,20.36
2017-07-28T03:58:36.880Z,20.28
2017-07-28T03:59:17.391Z,20.26
2017-07-28T03:59:57.894Z,20.18
2017-07-28T04:00:38.329Z,20.31
2017-07-28T04:01:18.850Z,20.36
2017-07-28T04:01:59.325Z,20.38
2017-07-28T04:02:39.808Z,20.14
2017-07-28T04:03:20.369Z,20.24
2017-07-28T04:04:00.976Z,20.29
2017-07-28T04:04:41.483Z,20.26
2017-07-28T04:05:21.989Z,20.23
2017-07-28T04:06:02.490Z,20.32
2017-07-28T04:06:42.966Z,20.28
2017-07-28T04:07:23.445Z,20.18
2017-07-28T04:08:04.040Z,20.26
2017-07-28T04:08:44.439Z,20.26
2017-07-28T04:09:24.980Z,20.28
2017-07-28T04:10:05.592Z,20.32
2017-07-28T04:10:46.018Z,20.23
2017-07-28T04:11:26.532Z,20.29
2017-07-28T04:12:07.089Z,20.14
2017-07-28T04:12:47.578Z,20.1
2017-07-28T04:13:28.118Z,20.2
2017-07-28T04:14:08.554Z,20.2
2017-07-28T04:14:49.079Z,20.18
2017-07-28T04:15:29.623Z,20.05
2017-07-28T04:16:10.817Z,20.16
2017-07-28T04:16:50.622Z,20.06
2017-07-28T04:17:31.125Z,19.92
2017-07-28T04:18:11.756Z,19.88
2017-07-28T04:18:52.239Z,19.96
2017-07-28T04:19:32.769Z,19.92
2017-07-28T04:20:13.298Z,19.95
2017-07-28T04:20:53.816Z,19.92
2017-07-28T04:21:34.332Z,19.94
2017-07-28T04:22:14.843Z,19.92
2017-07-28T04:22:55.297Z,19.86
2017-07-28T04:23:35.800Z,19.83
2017-07-28T04:24:16.303Z,19.8
2017-07-28T04:24:56.795Z,19.8
2017-07-28T04:25:37.282Z,19.8
2017-07-28T04:26:17.762Z,19.78
2017-07-28T04:26:58.269Z,19.87
2017-07-28T04:27:38.811Z,19.83
2017-07-28T04:28:19.356Z,19.77
2017-07-28T04:28:59.831Z,19.73
2017-07-28T04:29:40.372Z,19.76
2017-07-28T04:30:20.888Z,19.76
2017-07-28T04:31:01.358Z,19.74
2017-07-28T04:31:41.889Z,19.66
2017-07-28T04:32:22.354Z,19.65
2017-07-28T04:33:02.835Z,19.74
2017-07-28T04:33:43.332Z,19.76
2017-07-28T04:34:23.826Z,19.81
2017-07-28T04:35:04.332Z,19.76
2017-07-28T04:35:44.878Z,19.76
2017-07-28T04:36:25.433Z,19.78
2017-07-28T04:37:06.028Z,19.77
2017-07-28T04:37:46.484Z,19.87
2017-07-28T04:38:26.942Z,19.83
2017-07-28T04:39:07.439Z,19.74
2017-07-28T04:39:47.937Z,19.88
2017-07-28T04:40:28.461Z,19.87
2017-07-28T04:41:08.931Z,19.86
2017-07-28T04:41:49.463Z,19.88
2017-07-28T04:42:29.938Z,19.95
2017-07-28T04:43:10.431Z,20.06
2017-07-28T04:43:50.912Z,20.03
2017-07-28T04:44:31.429Z,20.1
2017-07-28T04:45:11.915Z,20.03
2017-07-28T04:45:52.433Z,20.08
2017-07-28T04:46:32.944Z,20.08
2017-07-28T04:47:13.439Z,20.06
2017-07-28T04:47:53.952Z,19.95
2017-07-28T04:48:34.437Z,20.13
2017-07-28T04:49:14.902Z,20.16
2017-07-28T04:49:55.463Z,20.13
2017-07-28T04:50:35.921Z,20.17
2017-07-28T04:51:16.473Z,20.13
2017-07-28T04:51:56.933Z,20.2
2017-07-28T04:52:37.454Z,20.24
2017-07-28T04:53:18.174Z,20.2
2017-07-28T04:53:58.647Z,20.16
2017-07-28T04:54:39.234Z,20.17
2017-07-28T04:55:19.663Z,20.17
2017-07-28T04:56:00.142Z,20.03
2017-07-28T04:56:40.657Z,20.05
2017-07-28T04:57:21.146Z,20.14
2017-07-28T04:58:01.668Z,20.05
2017-07-28T04:58:42.189Z,20.16
2017-07-28T04:59:22.661Z,20.18
2017-07-28T05:00:03.211Z,20.28
2017-07-28T05:00:43.712Z,20.36
2017-07-28T05:01:24.279Z,20.43
2017-07-28T05:02:04.857Z,20.38
2017-07-28T05:02:45.313Z,20.48
2017-07-28T05:03:25.751Z,20.39
2017-07-28T05:04:06.243Z,20.38
2017-07-28T05:04:46.720Z,20.48
2017-07-28T05:05:27.226Z,20.59
2017-07-28T05:06:07.771Z,20.58
2017-07-28T05:06:48.282Z,20.58
2017-07-28T05:07:28.757Z,20.58
2017-07-28T05:08:09.310Z,20.55
2017-07-28T05:08:49.776Z,20.5
2017-07-28T05:09:30.256Z,20.58
2017-07-28T05:10:10.765Z,20.66
2017-07-28T05:10:51.233Z,20.58
2017-07-28T05:11:31.811Z,20.7
2017-07-28T05:12:12.263Z,20.69
2017-07-28T05:12:52.725Z,20.59
2017-07-28T05:13:33.221Z,20.57
2017-07-28T05:14:13.732Z,20.69
2017-07-28T05:14:54.223Z,20.8
2017-07-28T05:15:34.783Z,20.77
2017-07-28T05:16:15.283Z,20.84
2017-07-28T05:16:55.834Z,20.88
2017-07-28T05:17:36.312Z,20.87
2017-07-28T05:18:16.821Z,20.84
2017-07-28T05:18:57.310Z,20.95
2017-07-28T05:19:37.798Z,20.92
2017-07-28T05:21:36.055Z,21.04
2017-07-28T05:23:34.154Z,21.07
2017-07-28T05:24:14.616Z,21.03
2017-07-28T05:24:55.128Z,20.98
2017-07-28T05:25:35.662Z,20.99
2017-07-28T05:26:16.166Z,21.07
2017-07-28T05:26:56.652Z,20.99
2017-07-28T05:27:37.158Z,21.13
2017-07-28T05:28:17.676Z,21.19
2017-07-28T05:28:58.152Z,21.12
2017-07-28T05:29:38.645Z,21.37
2017-07-28T05:30:19.162Z,21.37
2017-07-28T05:30:59.629Z,21.49
2017-07-28T05:31:40.128Z,21.47
2017-07-28T05:32:20.606Z,21.56
2017-07-28T05:33:01.089Z,21.47
2017-07-28T05:33:41.607Z,21.62
2017-07-28T05:34:22.091Z,21.65
2017-07-28T05:35:02.603Z,21.68
2017-07-28T05:35:43.105Z,21.77
2017-07-28T05:36:23.610Z,21.77
2017-07-28T05:37:04.145Z,21.68
2017-07-28T05:37:44.610Z,21.46
2017-07-28T05:38:25.067Z,21.43
2017-07-28T05:39:05.698Z,21.44
2017-07-28T05:39:46.223Z,21.31
2017-07-28T05:40:26.694Z,21.34
2017-07-28T05:41:07.373Z,21.58
2017-07-28T05:41:47.835Z,21.65
2017-07-28T05:42:28.476Z,21.47
2017-07-28T05:43:09.024Z,21.53
2017-07-28T05:43:49.517Z,21.4
2017-07-28T05:44:30.254Z,21.44
2017-07-28T05:45:11.033Z,21.42
2017-07-28T05:45:51.752Z,21.32
2017-07-28T05:46:32.320Z,21.44
2017-07-28T05:47:12.864Z,21.46
2017-07-28T05:47:53.397Z,21.47
2017-07-28T05:48:33.874Z,21.49
2017-07-28T05:49:14.375Z,21.53
2017-07-28T05:49:54.881Z,21.64
2017-07-28T05:50:35.391Z,21.56
2017-07-28T05:51:15.956Z,21.49
2017-07-28T05:51:56.392Z,21.5
2017-07-28T05:52:36.947Z,21.67
2017-07-28T05:53:17.398Z,21.65
2017-07-28T05:53:57.942Z,21.72
2017-07-28T05:54:38.582Z,21.69
2017-07-28T05:55:19.030Z,21.74
2017-07-28T05:55:59.488Z,21.8
2017-07-28T05:56:39.994Z,21.75
2017-07-28T05:57:20.440Z,21.84
2017-07-28T05:58:00.964Z,21.92
2017-07-28T05:58:41.434Z,21.92
2017-07-28T05:59:22.270Z,21.98
2017-07-28T06:00:02.771Z,22.02
2017-07-28T06:00:43.256Z,21.86
2017-07-28T06:01:23.756Z,21.94
2017-07-28T06:02:04.342Z,21.91
2017-07-28T06:02:44.836Z,21.86
2017-07-28T06:03:25.339Z,21.96
2017-07-28T06:04:06.096Z,21.94
2017-07-28T06:04:46.924Z,21.99
2017-07-28T06:05:27.409Z,21.91
2017-07-28T06:06:07.952Z,21.96
2017-07-28T06:06:48.441Z,22.02
2017-07-28T06:07:28.890Z,21.96
2017-07-28T06:08:09.442Z,21.94
2017-07-28T06:08:49.941Z,22.03
2017-07-28T06:09:30.419Z,22.06
2017-07-28T06:10:11.120Z,22.02
2017-07-28T06:10:51.629Z,22.2
2017-07-28T06:11:32.106Z,22.28
2017-07-28T06:12:12.762Z,22.4
2017-07-28T06:12:53.107Z,22.37
2017-07-28T06:13:33.627Z,22.35
2017-07-28T06:14:14.130Z,22.37
2017-07-28T06:14:54.628Z,22.64
2017-07-28T06:15:35.146Z,22.62
2017-07-28T06:16:15.631Z,22.79
2017-07-28T06:16:56.109Z,22.73
2017-07-28T06:17:36.618Z,22.76
2017-07-28T06:18:17.117Z,22.73
2017-07-28T06:18:57.598Z,22.7
2017-07-28T06:19:38.370Z,22.88
2017-07-28T06:20:18.905Z,22.92
2017-07-28T06:20:59.410Z,22.94
2017-07-28T06:21:39.906Z,23.01
2017-07-28T06:22:20.472Z,23.1
2017-07-28T06:23:01.152Z,23.13
2017-07-28T06:23:41.717Z,23.02
2017-07-28T06:24:22.223Z,23.13
2017-07-28T06:25:02.712Z,23.09
2017-07-28T06:25:43.203Z,23.09
2017-07-28T06:26:23.823Z,23.15
2017-07-28T06:27:04.336Z,23.12
2017-07-28T06:27:44.856Z,23.12
2017-07-28T06:28:25.367Z,23.1
2017-07-28T06:29:05.833Z,23.15
2017-07-28T06:29:46.330Z,23.1
2017-07-28T06:30:26.916Z,23.17
2017-07-28T06:31:07.429Z,23.22
2017-07-28T06:31:47.992Z,23.19
2017-07-28T06:32:28.491Z,23.17
2017-07-28T06:33:08.993Z,23.09
2017-07-28T06:33:49.453Z,23.13
2017-07-28T06:34:30.090Z,23.17
2017-07-28T06:35:10.559Z,23.01
2017-07-28T06:35:51.063Z,22.91
2017-07-28T06:36:31.548Z,22.86
2017-07-28T06:37:12.014Z,22.86
2017-07-28T06:37:52.516Z,22.97
2017-07-28T06:38:33.141Z,23.01
2017-07-28T06:39:13.505Z,23.07
2017-07-28T06:39:53.980Z,23.09
2017-07-28T06:40:34.506Z,23.19
2017-07-28T06:41:15.114Z,23.02
2017-07-28T06:41:55.560Z,22.94
2017-07-28T06:42:35.985Z,22.94
2017-07-28T06:43:16.534Z,23.01
2017-07-28T06:43:57.081Z,23.17
2017-07-28T06:44:37.687Z,23.02
2017-07-28T06:45:18.123Z,22.91
2017-07-28T06:45:58.621Z,22.86
2017-07-28T06:46:39.134Z,22.97
2017-07-28T06:47:19.672Z,23.02
2017-07-28T06:48:00.165Z,23.2
2017-07-28T06:48:40.725Z,23.25
2017-07-28T06:49:21.213Z,23.27
2017-07-28T06:50:01.771Z,23.32
2017-07-28T06:50:42.248Z,23.46
2017-07-28T06:51:22.754Z,23.27
2017-07-28T06:52:03.217Z,23.1
2017-07-28T06:52:43.711Z,23.09
2017-07-28T06:53:24.206Z,23.17
2017-07-28T06:54:04.816Z,23.12
2017-07-28T06:54:45.299Z,23.01
2017-07-28T06:55:25.803Z,23.09
2017-07-28T06:56:06.282Z,23.15
2017-07-28T06:56:46.827Z,23.22
2017-07-28T06:57:27.304Z,23.31
2017-07-28T06:58:07.808Z,23.27
2017-07-28T06:58:48.372Z,23.38
2017-07-28T06:59:28.916Z,23.57
2017-07-28T07:00:09.355Z,23.84
2017-07-28T07:00:49.853Z,24.03
2017-07-28T07:01:30.361Z,24.09
2017-07-28T07:02:10.914Z,24.22
2017-07-28T07:02:51.386Z,24.39
2017-07-28T07:03:31.904Z,24.32
2017-07-28T07:04:12.371Z,24.27
2017-07-28T07:04:52.902Z,24.3
2017-07-28T07:05:33.556Z,24.35
2017-07-28T07:06:14.047Z,24.37
2017-07-28T07:06:54.568Z,24.62
2017-07-28T07:07:35.058Z,24.68
2017-07-28T07:08:15.584Z,24.71
2017-07-28T07:08:56.108Z,24.93
2017-07-28T07:09:36.567Z,24.99
2017-07-28T07:10:17.039Z,24.65
2017-07-28T07:10:57.554Z,24.53
2017-07-28T07:11:38.069Z,24.53
2017-07-28T07:12:18.583Z,24.67
2017-07-28T07:12:59.070Z,24.4
2017-07-28T07:13:39.605Z,24.32
2017-07-28T07:14:20.075Z,24.47
2017-07-28T07:15:00.577Z,24.49
2017-07-28T07:15:41.075Z,24.77
2017-07-28T07:16:21.587Z,24.76
2017-07-28T07:17:02.113Z,24.87
2017-07-28T07:17:42.650Z,24.8
2017-07-28T07:18:23.150Z,24.64
2017-07-28T07:19:03.616Z,24.64
2017-07-28T07:19:44.109Z,24.52
2017-07-28T07:20:24.587Z,24.46
2017-07-28T07:21:05.117Z,24.49
2017-07-28T07:21:45.657Z,24.43
2017-07-28T07:22:26.189Z,24.37
2017-07-28T07:23:06.673Z,24.34
2017-07-28T07:23:47.187Z,24.12
2017-07-28T07:24:27.710Z,24.09
2017-07-28T07:25:08.229Z,24.15
2017-07-28T07:25:48.728Z,24.27
2017-07-28T07:27:27.754Z,24.28
2017-07-28T07:28:08.424Z,24.3
2017-07-28T07:28:48.923Z,24.15
2017-07-28T07:29:29.410Z,24.12
2017-07-28T07:30:09.941Z,24.05
2017-07-28T07:30:50.369Z,24.05
2017-07-28T07:31:30.880Z,24.06
2017-07-28T07:32:11.366Z,24.16
2017-07-28T07:32:51.832Z,24.47
2017-07-28T07:33:32.358Z,24.5
2017-07-28T07:34:12.915Z,24.47
2017-07-28T07:34:53.427Z,24.64
2017-07-28T07:35:33.959Z,24.61
2017-07-28T07:36:14.450Z,24.84
2017-07-28T07:36:54.943Z,24.87
2017-07-28T07:37:35.438Z,24.87
2017-07-28T07:38:15.990Z,24.9
2017-07-28T07:38:56.552Z,24.9
2017-07-28T07:39:37.059Z,24.73
2017-07-28T07:40:17.492Z,24.67
2017-07-28T07:40:57.959Z,24.65
2017-07-28T07:41:38.886Z,24.65
2017-07-28T07:42:19.356Z,24.62
2017-07-28T07:42:59.906Z,24.73
2017-07-28T07:43:40.408Z,24.68
2017-07-28T07:44:20.964Z,24.67
2017-07-28T07:45:01.422Z,24.58
2017-07-28T07:45:41.903Z,24.65
2017-07-28T07:46:22.465Z,24.71
2017-07-28T07:47:03.205Z,24.67
2017-07-28T07:47:43.685Z,24.8
2017-07-28T07:48:24.219Z,24.88
2017-07-28T07:49:04.705Z,24.8
2017-07-28T07:49:45.570Z,24.9
2017-07-28T07:50:26.189Z,24.9
2017-07-28T07:51:06.991Z,24.84
2017-07-28T07:51:47.488Z,24.95
2017-07-28T07:52:27.968Z,24.87
2017-07-28T07:53:08.470Z,25.03
2017-07-28T07:53:49.073Z,25.15
2017-07-28T07:54:29.650Z,25.3
2017-07-28T07:55:10.128Z,25.24
2017-07-28T07:55:50.692Z,25.28
2017-07-28T07:56:31.127Z,25.24
2017-07-28T07:57:11.641Z,25.3
2017-07-28T07:57:52.142Z,25.3
2017-07-28T07:58:32.585Z,25.45
2017-07-28T07:59:13.139Z,25.46
2017-07-28T07:59:53.661Z,25.42
2017-07-28T08:00:34.554Z,25.46
2017-07-28T08:01:15.024Z,25.46
2017-07-28T08:01:55.563Z,25.4
2017-07-28T08:02:36.047Z,25.36
2017-07-28T08:03:16.553Z,25.54
2017-07-28T08:03:57.135Z,25.67
2017-07-28T08:04:37.558Z,25.64
2017-07-28T08:05:18.144Z,25.92
2017-07-28T08:05:58.715Z,26.06
2017-07-28T08:06:39.194Z,26.15
2017-07-28T08:07:19.716Z,25.99
2017-07-28T08:08:00.333Z,25.9
2017-07-28T08:08:40.895Z,25.85
2017-07-28T08:09:21.396Z,26.05
2017-07-28T08:10:01.939Z,26.02
2017-07-28T08:10:42.444Z,26.01
2017-07-28T08:11:22.942Z,26.01
2017-07-28T08:12:03.472Z,25.99
2017-07-28T08:12:44.005Z,26.05
2017-07-28T08:13:24.478Z,26.17
2017-07-28T08:14:05.023Z,26.2
2017-07-28T08:14:45.491Z,26.1
2017-07-28T08:15:26.004Z,26.13
2017-07-28T08:16:06.521Z,26.17
2017-07-28T08:16:47.037Z,26.23
2017-07-28T08:17:27.569Z,26.33
2017-07-28T08:18:07.991Z,26.23
2017-07-28T08:18:48.606Z,26.28
2017-07-28T08:19:29.104Z,26.35
2017-07-28T08:20:09.666Z,26.3
2017-07-28T08:20:50.145Z,26.15
2017-07-28T08:21:30.739Z,26.1
2017-07-28T08:22:11.181Z,26.18
2017-07-28T08:22:51.654Z,26.35
2017-07-28T08:23:32.172Z,26.32
2017-07-28T08:24:12.666Z,26.43
2017-07-28T08:24:53.133Z,26.5
2017-07-28T08:25:33.597Z,26.55
2017-07-28T08:26:14.099Z,26.55
2017-07-28T08:26:54.615Z,26.39
2017-07-28T08:27:35.134Z,26.37
2017-07-28T08:28:15.666Z,26.32
2017-07-28T08:28:56.155Z,26.21
2017-07-28T08:29:36.677Z,26.12
2017-07-28T08:30:17.159Z,26.07
2017-07-28T08:30:57.611Z,26.18
2017-07-28T08:31:38.121Z,26.09
2017-07-28T08:32:18.715Z,26.09
2017-07-28T08:32:59.118Z,25.97
2017-07-28T08:33:39.674Z,25.95
2017-07-28T08:34:20.206Z,26.1
2017-07-28T08:35:00.663Z,26.35
2017-07-28T08:35:41.124Z,26.25
2017-07-28T08:36:21.646Z,26.25
2017-07-28T08:37:02.135Z,26.25
2017-07-28T08:37:42.676Z,26.39
2017-07-28T08:38:23.245Z,26.32
2017-07-28T08:39:03.664Z,26.17
2017-07-28T08:39:44.209Z,26.15
2017-07-28T08:40:24.775Z,26.18
2017-07-28T08:41:05.188Z,26.07
2017-07-28T08:41:45.839Z,26.2
2017-07-28T08:42:26.343Z,25.92
2017-07-28T08:43:06.827Z,25.88
2017-07-28T08:43:47.290Z,25.79
2017-07-28T08:44:27.899Z,25.77
2017-07-28T08:45:08.378Z,25.7
2017-07-28T08:45:48.839Z,25.65
2017-07-28T08:46:29.352Z,25.55
2017-07-28T08:47:09.836Z,25.4
2017-07-28T08:47:50.436Z,25.32
2017-07-28T08:48:30.955Z,25.4
2017-07-28T08:49:11.475Z,25.32
2017-07-28T08:49:51.831Z,25.2